世纪气象云

 找回密码
 注册

QQ登录

只需一步,快速开始

楼主: li0627
收起左侧

[寒潮强冷] 戊子岁末大寒节气追击帖(1-20到2-03)

[复制链接]
发表于 2009-1-22 10:55 | 显示全部楼层

蒙古国西部几个测站的数据(00UTC):
Uiqi(1716m)-25.3℃,844.0/1064.0hPa
Ulaan-Gom(940m)-33.6℃,935.4/1069.6hPa
Omno-Gobi(1590m)-30.9℃,856.4/1071.7hPa
原帖由 热带台风 于 2009-1-21 19:02 发表
十三间房气象站16:30阵风增强到11级(29M/S)

昨晚一度飙到持续23.4m/s,GUST 31.4m/s..................
 楼主| 发表于 2009-1-22 19:00 | 显示全部楼层
广东省汕头市,已经连续三日霾,黄色灰霾信号生效超过72小时。

附上气温实况:

shant.jpg

汕头天气实况
日期时间天气气压
(hPa)
气温
(℃)
风向风速
(m/s)
相对湿度
(%)
视程
(km)
21日17时晴,霾1014.621.23647
21日20时晴,轻雾1015.817.8东南1816
21日23时多云到阴,轻雾1016.917.21863
22日02时阴,轻雾1015.616.62903
22日05时阴,轻雾1015.115.52885
22日08时阴,轻雾1016.515.71884
22日11时阴,霾1015.218.31765
22日14时阴,霾1011.820.12703
22日17时晴,霾1012.518.1东南2793
发表于 2009-1-22 19:53 | 显示全部楼层
19时北京在持续的7—8级偏北大风中气温破-10度大关,干净利落!
发表于 2009-1-22 20:50 | 显示全部楼层
冷锋已过南京

未命名.jpg

20时(北京时),蒙古国西部——俄蒙边境的气压。。。。900+m比600+m的气压还要高出6hPa

Kyzyl(51.7N, 94.5E,  629m)-27℃, 977.2/1066.1hPa
Ulaan-Gom(50N, 92.1E,  940m)-35℃, 983.6/1074.1hPa
Baruunturuun(49.7N, 94.4E,  1232m)-32℃, 900.5/1071.8hPa


[ 本帖最后由 dujuan 于 2009-1-22 21:10 编辑 ]
发表于 2009-1-22 21:41 | 显示全部楼层
刚刚那个过去的五分钟冷锋到我家(上海普陀)报道~~
发表于 2009-1-22 22:24 | 显示全部楼层
原帖由 沙漠孤魂 于 2009-1-22 21:41 发表
刚刚那个过去的五分钟冷锋到我家(上海普陀)报道~~

冷锋已过上海

浦东机场实况:
METAR ZSPD 221200Z 24003MPS 3500 BR FEW023 06/05 Q1019 NOSIG
METAR ZSPD 221230Z 22001MPS 2000 BR SKC 05/04 Q1019 NOSIG
METAR ZSPD 221300Z 30002MPS 2000 BR SKC 05/03 Q1020 NOSIG
METAR ZSPD 221330Z 33004G09MPS 3000 BR FEW023 06/05 Q1020 NOSIG
METAR ZSPD 221400Z 33010G17MPS 2000 BR SCT006 07/04 Q1022 NOSIG


杭州,静风。。。。锋前的平静么
METAR ZSHC 221400Z 00000MPS 1600 BR SCT020 09/07 Q1021 NOSIG
发表于 2009-1-23 02:00 | 显示全部楼层
KMA的3小时地面图,给了1069HPA,貌似是今冬最高,不过K版好像说过,KMA3小时地面图不能做依据之类的
更多图片 小图 大图
组图打开中,请稍候......
 楼主| 发表于 2009-1-23 10:21 | 显示全部楼层
…… ech.jpg

nch.jpg

00UTC的天气图均尚未更新。之前CWB给冷高中心定1074hpa。大陆境内,银川站8点气压1055hpa。

银川天气实况
日期时间天气气压
(hPa)
气温
(℃)
风向风速
(m/s)
相对湿度
(%)
视程
(km)
22日08时多云到阴1033.2-11.634430
22日11时多云到阴1039.6-11.243020
22日14时多云1038.0-8.322320
22日17时多云到阴1042.6-9.5西71520
22日20时1047.5-12.9西82030
22日23时1051.5-15.943030
23日02时1052.5-18.533230
23日05时1053.3-19.323330
23日08时1055.0-20.4西南23830
发表于 2009-1-23 10:31 | 显示全部楼层
貌似锋面已消,对华南一带,冷空气仅属扩散南下而已。

汕头灰霾依旧,不过从实况看起了轻雾。气温相信得到今夜才开始剧烈下降。

汕头天气实况
日期时间天气气压
(hPa)
气温
(℃)
风向风速
(m/s)
相对湿度
(%)
视程
(km)
22日08时阴,轻雾1016.515.71884
22日11时阴,霾1015.218.31765
22日14时阴,霾1011.820.12703
22日17时晴,霾1012.518.1东南2793
22日20时阴,轻雾1014.316.81853
22日23时多云到阴,轻雾1016.015.00903
23日02时多云,轻雾1015.515.11923
23日05时阴,轻雾1017.115.33854
23日08时阴,轻雾1020.714.91855
发表于 2009-1-23 10:46 | 显示全部楼层
强降温及降雨(雪)天气消息(预警中)
来源:重庆市气象台 生效时间:2009年01月22日14时34分 时效:72小时
受北方强冷空气影响,预计从22日夜间到24日白天,我市各地将先后出现一次较强降温、降雨(雪)天气过程,全市大部分地方有小雨,部分地方雨夹雪,海拔600米以上地区小雪;各地日平均气温将普遍下降4-6℃,东南部等地下降5-7℃,最低气温下降到2-4℃,城口、酉阳、秀山等地降到-1~-3℃。冷空气影响时,山口河谷有3-4级的偏北风,海拔600米以上地区可能出现积雪或道路结冰。请有关部门和各区县做好防御低温、道路结冰等的工作。
您需要登录后才可以回帖 登录 | 注册

本版积分规则

Archiver|手机版|世纪气象云 | | | 关于我们

GMT+8, 2019-12-12 10:45 , Processed in 0.063912 second(s), 17 queries .

Powered by Discuz! X3.4

© 2001-2017 Comsenz Inc.

快速回复 返回顶部 返回列表